createdAt,value
2023-04-23T00:00:19.507Z,9.74
2023-04-23T00:02:50.338Z,9.74
2023-04-23T00:05:19.011Z,9.71
2023-04-23T00:07:52.182Z,9.66
2023-04-23T00:10:21.108Z,9.60
2023-04-23T00:12:50.515Z,9.62
2023-04-23T00:15:21.255Z,9.59
2023-04-23T00:17:50.596Z,9.60
2023-04-23T00:20:19.479Z,9.58
2023-04-23T00:22:49.446Z,9.58
2023-04-23T00:25:17.882Z,9.61
2023-04-23T00:27:48.076Z,9.62
2023-04-23T00:30:17.067Z,9.59
2023-04-23T00:32:48.843Z,9.59
2023-04-23T00:35:18.719Z,9.57
2023-04-23T00:37:49.239Z,9.53
2023-04-23T00:40:18.189Z,9.55
2023-04-23T00:42:47.476Z,9.53
2023-04-23T00:45:16.292Z,9.54
2023-04-23T00:47:45.897Z,9.49
2023-04-23T00:50:15.522Z,9.49
2023-04-23T00:52:44.349Z,9.51
2023-04-23T00:55:14.484Z,9.46
2023-04-23T00:57:43.734Z,9.42
2023-04-23T01:00:15.878Z,9.40
2023-04-23T01:02:44.937Z,9.36
2023-04-23T01:05:13.877Z,9.30
2023-04-23T01:07:43.387Z,9.26
2023-04-23T01:10:14.448Z,9.25
2023-04-23T01:12:43.548Z,9.26
2023-04-23T01:15:12.953Z,9.26
2023-04-23T01:17:41.872Z,9.21
2023-04-23T01:20:11.463Z,9.20
2023-04-23T01:22:41.842Z,9.20
2023-04-23T01:25:11.526Z,9.15
2023-04-23T01:27:40.567Z,9.15
2023-04-23T01:30:17.977Z,9.18
2023-04-23T01:32:47.705Z,9.18
2023-04-23T01:35:16.286Z,8.79
2023-04-23T01:37:46.859Z,9.20
2023-04-23T01:40:15.976Z,9.19
2023-04-23T01:42:45.173Z,9.15
2023-04-23T01:45:14.285Z,9.15
2023-04-23T01:47:43.241Z,9.15
2023-04-23T01:50:12.104Z,9.11
2023-04-23T01:52:41.892Z,9.11
2023-04-23T01:55:12.095Z,9.14
2023-04-23T01:57:41.929Z,9.14
2023-04-23T02:00:12.544Z,9.12
2023-04-23T02:02:42.824Z,9.09
2023-04-23T02:05:13.685Z,9.05
2023-04-23T02:07:42.638Z,9.04
2023-04-23T02:10:13.865Z,8.98
2023-04-23T02:12:42.768Z,8.92
2023-04-23T02:15:12.197Z,8.92
2023-04-23T02:17:42.145Z,8.93
2023-04-23T02:20:11.387Z,8.93
2023-04-23T02:22:41.056Z,8.95
2023-04-23T02:25:10.772Z,8.93
2023-04-23T02:27:40.639Z,8.92
2023-04-23T02:30:10.476Z,8.86
2023-04-23T02:32:39.938Z,8.81
2023-04-23T02:35:09.660Z,8.76
2023-04-23T02:37:39.925Z,8.72
2023-04-23T02:40:09.577Z,8.66
2023-04-23T02:42:38.602Z,8.59
2023-04-23T02:45:09.710Z,8.62
2023-04-23T02:47:38.331Z,8.61
2023-04-23T02:50:08.173Z,8.56
2023-04-23T02:52:36.991Z,8.58
2023-04-23T02:55:07.329Z,8.58
2023-04-23T02:57:35.970Z,8.54
2023-04-23T03:00:07.334Z,8.51
2023-04-23T03:02:40.163Z,8.50
2023-04-23T03:05:10.080Z,8.47
2023-04-23T03:07:39.024Z,8.45
2023-04-23T03:10:08.956Z,8.40
2023-04-23T03:12:37.479Z,8.35
2023-04-23T03:15:07.137Z,8.35
2023-04-23T03:17:35.687Z,8.35
2023-04-23T03:20:07.416Z,8.34
2023-04-23T03:22:36.363Z,8.32
2023-04-23T03:25:05.423Z,8.29
2023-04-23T03:27:34.119Z,8.23
2023-04-23T03:30:02.935Z,8.21
2023-04-23T03:32:31.896Z,7.65
2023-04-23T03:35:01.118Z,8.17
2023-04-23T03:37:35.711Z,8.13
2023-04-23T03:40:08.539Z,8.13
2023-04-23T03:42:37.514Z,8.16
2023-04-23T03:45:07.732Z,8.17
2023-04-23T03:47:37.082Z,8.20
2023-04-23T03:50:07.016Z,8.20
2023-04-23T03:52:37.429Z,8.22
2023-04-23T03:55:06.660Z,8.22
2023-04-23T03:57:35.824Z,8.20
2023-04-23T04:00:05.231Z,8.18
2023-04-23T04:02:34.036Z,8.22
2023-04-23T04:05:03.680Z,8.18
2023-04-23T04:07:32.540Z,8.20
2023-04-23T04:10:03.522Z,8.16
2023-04-23T04:12:32.154Z,8.13
2023-04-23T04:15:01.275Z,8.14
2023-04-23T04:17:29.699Z,8.13
2023-04-23T04:19:58.739Z,8.06
2023-04-23T04:22:27.692Z,8.03
2023-04-23T04:24:57.784Z,8.02
2023-04-23T04:27:28.054Z,8.02
2023-04-23T04:29:56.698Z,8.03
2023-04-23T04:32:25.723Z,8.10
2023-04-23T04:34:54.096Z,8.13
2023-04-23T04:37:23.559Z,8.17
2023-04-23T04:39:52.796Z,8.16
2023-04-23T04:42:21.754Z,8.13
2023-04-23T04:44:53.831Z,8.23
2023-04-23T04:47:22.849Z,8.35
2023-04-23T04:49:51.452Z,8.41
2023-04-23T04:52:20.243Z,8.50
2023-04-23T04:54:48.912Z,8.58
2023-04-23T04:57:17.690Z,8.65
2023-04-23T04:59:47.185Z,8.68
2023-04-23T05:02:17.233Z,8.77
2023-04-23T05:04:46.090Z,8.84
2023-04-23T05:07:15.033Z,8.86
2023-04-23T05:09:45.105Z,8.93
2023-04-23T05:12:14.488Z,8.91
2023-04-23T05:14:43.253Z,8.95
2023-04-23T05:17:12.486Z,9.04
2023-04-23T05:19:45.296Z,9.05
2023-04-23T05:22:13.916Z,9.13
2023-04-23T05:24:42.795Z,9.16
2023-04-23T05:27:12.082Z,9.27
2023-04-23T05:29:40.440Z,9.36
2023-04-23T05:32:09.367Z,9.43
2023-04-23T05:34:37.864Z,9.49
2023-04-23T05:37:07.957Z,9.54
2023-04-23T05:39:36.598Z,9.60
2023-04-23T05:42:05.535Z,9.48
2023-04-23T05:44:33.960Z,9.63
2023-04-23T05:47:03.206Z,9.66
2023-04-23T05:49:31.918Z,9.70
2023-04-23T05:52:00.723Z,9.82
2023-04-23T05:54:30.743Z,9.94
2023-04-23T05:57:01.219Z,10.07
2023-04-23T05:59:29.798Z,10.17
2023-04-23T06:01:58.566Z,10.29
2023-04-23T06:04:27.722Z,10.35
2023-04-23T06:06:56.626Z,10.39
2023-04-23T06:09:25.045Z,10.40
2023-04-23T06:11:57.342Z,10.45
2023-04-23T06:14:25.745Z,10.45
2023-04-23T06:16:54.639Z,10.50
2023-04-23T06:19:25.284Z,10.57
2023-04-23T06:21:54.115Z,10.67
2023-04-23T06:24:23.010Z,10.81
2023-04-23T06:26:51.564Z,11.00
2023-04-23T06:29:22.348Z,11.33
2023-04-23T06:31:51.023Z,11.60
2023-04-23T06:34:20.043Z,11.77
2023-04-23T06:36:48.557Z,11.99
2023-04-23T06:39:17.513Z,12.13
2023-04-23T06:41:47.052Z,12.23
2023-04-23T06:44:15.488Z,12.25
2023-04-23T06:46:46.232Z,12.36
2023-04-23T06:49:17.357Z,12.48
2023-04-23T06:51:45.977Z,12.53
2023-04-23T06:54:14.582Z,12.65
2023-04-23T06:56:43.389Z,12.70
2023-04-23T06:59:12.683Z,12.75
2023-04-23T07:01:41.557Z,12.92
2023-04-23T07:04:11.807Z,13.09
2023-04-23T07:06:40.687Z,13.13
2023-04-23T07:09:09.590Z,13.21
2023-04-23T07:11:41.263Z,13.30
2023-04-23T07:14:10.195Z,13.44
2023-04-23T07:16:39.112Z,13.63
2023-04-23T07:19:07.898Z,13.79
2023-04-23T07:21:38.262Z,13.90
2023-04-23T07:24:08.484Z,14.09
2023-04-23T07:26:37.500Z,14.34
2023-04-23T07:29:08.208Z,14.44
2023-04-23T07:31:36.884Z,14.64
2023-04-23T07:34:06.937Z,14.57
2023-04-23T07:36:37.779Z,14.65
2023-04-23T07:39:08.171Z,14.76
2023-04-23T07:41:37.021Z,15.03
2023-04-23T07:44:05.811Z,15.26
2023-04-23T07:46:35.023Z,15.35
2023-04-23T07:49:04.104Z,15.73
2023-04-23T07:51:32.815Z,15.92
2023-04-23T07:54:01.522Z,16.28
2023-04-23T07:56:32.932Z,16.70
2023-04-23T07:59:02.426Z,16.82
2023-04-23T08:01:31.144Z,16.90
2023-04-23T08:04:00.998Z,17.01
2023-04-23T08:06:31.747Z,17.07
2023-04-23T08:09:00.448Z,17.26
2023-04-23T08:11:30.275Z,17.42
2023-04-23T08:14:01.642Z,17.67
2023-04-23T08:16:31.268Z,17.72
2023-04-23T08:19:05.385Z,17.98
2023-04-23T08:21:34.786Z,18.14
2023-04-23T08:24:04.642Z,18.27
2023-04-23T08:26:33.207Z,18.46
2023-04-23T08:29:03.593Z,18.55
2023-04-23T08:31:32.487Z,18.63
2023-04-23T08:34:01.559Z,18.55
2023-04-23T08:36:30.482Z,18.48
2023-04-23T08:39:00.990Z,18.40
2023-04-23T08:41:37.006Z,18.53
2023-04-23T08:44:11.670Z,18.62
2023-04-23T08:46:43.889Z,18.67
2023-04-23T08:49:15.842Z,18.65
2023-04-23T08:51:48.103Z,18.56
2023-04-23T08:54:20.435Z,18.62
2023-04-23T08:56:49.656Z,18.54
2023-04-23T08:59:21.783Z,18.46
2023-04-23T09:01:52.896Z,18.45
2023-04-23T09:04:21.998Z,18.45
2023-04-23T09:06:54.306Z,18.55
2023-04-23T09:09:24.523Z,18.63
2023-04-23T09:11:54.880Z,18.68
2023-04-23T09:14:26.752Z,18.74
2023-04-23T09:16:55.986Z,18.97
2023-04-23T09:19:28.058Z,19.15
2023-04-23T09:21:57.005Z,19.40
2023-04-23T09:24:26.803Z,19.72
2023-04-23T09:26:57.256Z,20.01
2023-04-23T09:29:27.406Z,20.29
2023-04-23T09:31:57.516Z,20.61
2023-04-23T09:34:27.884Z,20.62
2023-04-23T09:36:57.705Z,20.59
2023-04-23T09:39:26.803Z,20.51
2023-04-23T09:41:55.635Z,20.77
2023-04-23T09:44:24.754Z,21.04
2023-04-23T09:46:57.126Z,21.14
2023-04-23T09:49:27.372Z,21.09
2023-04-23T09:51:56.227Z,20.92
2023-04-23T09:54:27.624Z,20.76
2023-04-23T09:56:57.884Z,20.94
2023-04-23T09:59:39.578Z,21.03
2023-04-23T10:02:17.008Z,21.38
2023-04-23T10:04:45.964Z,21.53
2023-04-23T10:07:19.843Z,21.56
2023-04-23T10:10:00.617Z,21.89
2023-04-23T10:12:46.484Z,22.03
2023-04-23T10:15:18.306Z,22.26
2023-04-23T10:17:48.851Z,22.41
2023-04-23T10:20:18.157Z,22.53
2023-04-23T10:22:46.774Z,22.75
2023-04-23T10:25:15.644Z,23.22
2023-04-23T10:27:53.845Z,22.97
2023-04-23T10:30:23.414Z,23.08
2023-04-23T10:32:54.738Z,23.23
2023-04-23T10:35:23.948Z,23.32
2023-04-23T10:37:52.683Z,23.57
2023-04-23T10:40:25.934Z,24.09
2023-04-23T10:42:55.735Z,23.95
2023-04-23T10:45:25.833Z,23.95
2023-04-23T10:47:56.892Z,23.10
2023-04-23T10:50:27.614Z,23.02
2023-04-23T10:52:58.036Z,22.76
2023-04-23T10:55:28.386Z,22.41
2023-04-23T10:58:03.056Z,22.01
2023-04-23T11:00:47.854Z,22.44
2023-04-23T11:03:31.620Z,22.05
2023-04-23T11:06:03.635Z,21.39
2023-04-23T11:08:33.673Z,21.28
2023-04-23T11:11:03.927Z,21.52
2023-04-23T11:13:34.749Z,21.62
2023-04-23T11:16:16.691Z,21.67
2023-04-23T11:19:05.270Z,21.65
2023-04-23T11:22:08.662Z,21.35
2023-04-23T11:24:42.419Z,21.32
2023-04-23T11:27:12.561Z,20.75
2023-04-23T11:29:44.305Z,20.61
2023-04-23T11:32:14.780Z,20.78
2023-04-23T11:34:46.417Z,21.13
2023-04-23T11:37:16.396Z,21.33
2023-04-23T11:39:46.115Z,21.17
2023-04-23T11:42:15.426Z,21.07
2023-04-23T11:44:44.654Z,21.34
2023-04-23T11:47:14.494Z,21.63
2023-04-23T11:49:46.226Z,21.93
2023-04-23T11:52:16.558Z,22.25
2023-04-23T11:54:45.648Z,22.54
2023-04-23T11:57:14.817Z,22.67
2023-04-23T11:59:43.944Z,22.78
2023-04-23T12:02:15.615Z,22.83
2023-04-23T12:04:46.202Z,22.59
2023-04-23T12:07:25.980Z,22.63
2023-04-23T12:10:01.007Z,22.57
2023-04-23T12:12:35.630Z,22.36
2023-04-23T12:15:09.054Z,22.41
2023-04-23T12:17:37.995Z,22.24
2023-04-23T12:20:13.932Z,22.43
2023-04-23T12:22:44.765Z,22.18
2023-04-23T12:25:13.621Z,22.25
2023-04-23T12:27:42.725Z,22.26
2023-04-23T12:30:13.063Z,22.31
2023-04-23T12:32:42.931Z,22.16
2023-04-23T12:35:14.306Z,22.16
2023-04-23T12:37:43.033Z,22.25
2023-04-23T12:40:13.144Z,22.61
2023-04-23T12:42:42.083Z,22.81
2023-04-23T12:45:12.250Z,23.00
2023-04-23T12:47:41.874Z,23.17
2023-04-23T12:50:12.644Z,23.05
2023-04-23T12:52:43.592Z,22.95
2023-04-23T12:55:12.304Z,22.62
2023-04-23T12:57:43.726Z,22.61
2023-04-23T13:00:13.008Z,22.93
2023-04-23T13:02:41.790Z,23.12
2023-04-23T13:05:10.885Z,23.01
2023-04-23T13:07:42.982Z,23.05
2023-04-23T13:10:12.429Z,23.03
2023-04-23T13:12:41.640Z,23.05
2023-04-23T13:15:12.912Z,22.82
2023-04-23T13:17:41.849Z,23.22
2023-04-23T13:20:10.904Z,23.00
2023-04-23T13:22:41.561Z,23.02
2023-04-23T13:25:11.363Z,23.08
2023-04-23T13:27:41.054Z,23.16
2023-04-23T13:30:11.315Z,22.81
2023-04-23T13:32:41.792Z,23.03
2023-04-23T13:35:14.742Z,22.56
2023-04-23T13:37:45.137Z,22.49
2023-04-23T13:40:14.159Z,21.92
2023-04-23T13:42:43.222Z,21.77
2023-04-23T13:45:14.681Z,21.66
2023-04-23T13:47:44.026Z,21.49
2023-04-23T13:50:13.436Z,21.34
2023-04-23T13:52:45.972Z,21.05
2023-04-23T13:55:14.604Z,20.92
2023-04-23T13:57:43.428Z,20.77
2023-04-23T14:00:15.608Z,20.59
2023-04-23T14:02:44.502Z,20.51
2023-04-23T14:05:13.458Z,20.34
2023-04-23T14:07:42.722Z,20.15
2023-04-23T14:10:15.551Z,19.88
2023-04-23T14:12:44.854Z,19.77
2023-04-23T14:15:14.061Z,19.48
2023-04-23T14:17:44.460Z,19.53
2023-04-23T14:20:15.788Z,19.67
2023-04-23T14:22:45.158Z,19.87
2023-04-23T14:25:17.078Z,20.06
2023-04-23T14:27:47.506Z,20.18
2023-04-23T14:30:18.604Z,20.33
2023-04-23T14:32:49.693Z,20.21
2023-04-23T14:35:24.540Z,20.21
2023-04-23T14:37:55.090Z,20.12
2023-04-23T14:40:25.301Z,19.97
2023-04-23T14:42:56.935Z,19.41
2023-04-23T14:45:33.373Z,18.76
2023-04-23T14:48:02.116Z,18.57
2023-04-23T14:50:31.060Z,18.45
2023-04-23T14:53:00.026Z,18.34
2023-04-23T14:55:31.029Z,18.17
2023-04-23T14:57:59.787Z,18.05
2023-04-23T15:00:29.165Z,17.88
2023-04-23T15:02:58.640Z,17.66
2023-04-23T15:05:27.409Z,17.43
2023-04-23T15:07:55.970Z,16.63
2023-04-23T15:10:25.176Z,17.09
2023-04-23T15:13:04.595Z,16.81
2023-04-23T15:15:47.567Z,16.68
2023-04-23T15:18:16.900Z,16.50
2023-04-23T15:20:46.383Z,16.35
2023-04-23T15:23:15.147Z,16.19
2023-04-23T15:25:44.126Z,16.14
2023-04-23T15:28:14.761Z,16.00
2023-04-23T15:30:45.104Z,15.83
2023-04-23T15:33:14.213Z,15.69
2023-04-23T15:35:43.168Z,15.41
2023-04-23T15:38:13.062Z,15.41
2023-04-23T15:40:42.846Z,15.40
2023-04-23T15:43:12.880Z,15.35
2023-04-23T15:45:49.905Z,15.33
2023-04-23T15:48:21.595Z,15.29
2023-04-23T15:50:50.103Z,15.27
2023-04-23T15:53:20.330Z,15.20
2023-04-23T15:55:49.436Z,14.99
2023-04-23T15:58:18.700Z,14.94
2023-04-23T16:00:48.724Z,14.81
2023-04-23T16:03:17.798Z,14.66
2023-04-23T16:05:48.398Z,14.62
2023-04-23T16:08:17.629Z,14.71
2023-04-23T16:10:46.427Z,14.73
2023-04-23T16:13:15.717Z,14.67
2023-04-23T16:15:44.639Z,14.47
2023-04-23T16:18:17.594Z,14.37
2023-04-23T16:20:46.764Z,14.25
2023-04-23T16:23:15.634Z,14.21
2023-04-23T16:25:44.786Z,14.22
2023-04-23T16:28:15.580Z,14.20
2023-04-23T16:30:44.401Z,14.08
2023-04-23T16:33:14.723Z,14.01
2023-04-23T16:35:43.581Z,13.87
2023-04-23T16:38:13.196Z,13.85
2023-04-23T16:40:42.740Z,13.75
2023-04-23T16:43:11.762Z,13.67
2023-04-23T16:45:41.440Z,13.56
2023-04-23T16:48:14.226Z,13.59
2023-04-23T16:50:44.742Z,13.69
2023-04-23T16:53:14.413Z,13.63
2023-04-23T16:55:43.257Z,13.58
2023-04-23T16:58:12.366Z,13.57
2023-04-23T17:00:42.794Z,13.53
2023-04-23T17:03:16.128Z,13.43
2023-04-23T17:05:50.860Z,13.44
2023-04-23T17:08:20.125Z,13.43
2023-04-23T17:10:48.480Z,13.43
2023-04-23T17:13:16.923Z,13.44
2023-04-23T17:15:46.077Z,13.30
2023-04-23T17:18:15.181Z,13.18
2023-04-23T17:20:45.944Z,13.15
2023-04-23T17:23:14.669Z,13.06
2023-04-23T17:25:43.510Z,12.99
2023-04-23T17:28:12.484Z,12.91
2023-04-23T17:30:41.257Z,12.89
2023-04-23T17:33:09.964Z,12.99
2023-04-23T17:35:38.810Z,13.01
2023-04-23T17:38:09.915Z,12.98
2023-04-23T17:40:39.533Z,12.95
2023-04-23T17:43:08.402Z,12.92
2023-04-23T17:45:36.872Z,12.93
2023-04-23T17:48:06.799Z,12.85
2023-04-23T17:50:35.559Z,12.69
2023-04-23T17:53:05.707Z,12.30
2023-04-23T17:55:36.385Z,12.25
2023-04-23T17:58:05.950Z,12.37
2023-04-23T18:00:37.828Z,12.31
2023-04-23T18:03:09.029Z,12.37
2023-04-23T18:05:38.310Z,12.29
2023-04-23T18:08:08.066Z,12.25
2023-04-23T18:10:38.418Z,12.26
2023-04-23T18:13:09.383Z,12.22
2023-04-23T18:15:38.476Z,12.19
2023-04-23T18:18:07.310Z,12.11
2023-04-23T18:20:38.687Z,12.09
2023-04-23T18:23:08.377Z,12.11
2023-04-23T18:25:39.082Z,12.14
2023-04-23T18:28:08.309Z,12.12
2023-04-23T18:30:38.722Z,12.08
2023-04-23T18:33:14.058Z,12.05
2023-04-23T18:35:44.280Z,12.05
2023-04-23T18:38:13.470Z,12.05
2023-04-23T18:40:46.756Z,11.94
2023-04-23T18:43:15.274Z,11.89
2023-04-23T18:45:44.258Z,11.89
2023-04-23T18:48:41.702Z,11.77
2023-04-23T18:51:21.901Z,11.88
2023-04-23T18:53:50.902Z,11.90
2023-04-23T18:56:20.941Z,11.85
2023-04-23T18:58:49.628Z,11.82
2023-04-23T19:01:19.056Z,11.81
2023-04-23T19:03:48.698Z,11.81
2023-04-23T19:06:17.592Z,11.79
2023-04-23T19:08:46.468Z,11.77
2023-04-23T19:11:15.178Z,11.73
2023-04-23T19:13:45.660Z,11.66
2023-04-23T19:16:16.508Z,11.56
2023-04-23T19:18:45.673Z,11.46
2023-04-23T19:21:14.292Z,11.39
2023-04-23T19:23:43.472Z,11.36
2023-04-23T19:26:12.389Z,11.31
2023-04-23T19:28:41.613Z,11.30
2023-04-23T19:31:12.036Z,11.24
2023-04-23T19:33:42.983Z,11.21
2023-04-23T19:36:11.749Z,11.18
2023-04-23T19:38:40.634Z,11.18
2023-04-23T19:41:09.889Z,11.16
2023-04-23T19:43:39.035Z,11.11
2023-04-23T19:46:08.453Z,11.09
2023-04-23T19:48:38.842Z,11.06
2023-04-23T19:51:11.102Z,11.02
2023-04-23T19:53:40.200Z,11.00
2023-04-23T19:56:13.027Z,10.96
2023-04-23T19:58:42.998Z,10.91
2023-04-23T20:01:13.482Z,10.86
2023-04-23T20:03:48.272Z,10.81
2023-04-23T20:06:17.476Z,10.82
2023-04-23T20:09:06.521Z,10.76
2023-04-23T20:11:35.748Z,10.65
2023-04-23T20:14:04.733Z,10.59
2023-04-23T20:16:34.762Z,10.57
2023-04-23T20:19:05.603Z,10.59
2023-04-23T20:21:35.062Z,10.56
2023-04-23T20:24:03.694Z,10.48
2023-04-23T20:26:33.055Z,10.45
2023-04-23T20:29:01.728Z,10.42
2023-04-23T20:31:31.271Z,10.35
2023-04-23T20:34:00.124Z,10.33
2023-04-23T20:36:31.882Z,10.33
2023-04-23T20:39:03.492Z,10.30
2023-04-23T20:41:34.816Z,10.27
2023-04-23T20:44:03.707Z,10.27
2023-04-23T20:46:34.781Z,10.26
2023-04-23T20:49:03.514Z,10.23
2023-04-23T20:51:34.742Z,10.15
2023-04-23T20:54:04.798Z,10.11
2023-04-23T20:56:33.880Z,10.09
2023-04-23T20:59:03.051Z,10.05
2023-04-23T21:01:31.974Z,10.02
2023-04-23T21:04:01.637Z,10.02
2023-04-23T21:06:31.602Z,9.97
2023-04-23T21:09:02.035Z,9.91
2023-04-23T21:11:31.284Z,9.83
2023-04-23T21:14:00.921Z,9.85
2023-04-23T21:16:30.413Z,9.81
2023-04-23T21:18:59.800Z,9.77
2023-04-23T21:21:30.401Z,9.67
2023-04-23T21:24:00.465Z,9.74
2023-04-23T21:26:31.934Z,9.63
2023-04-23T21:29:00.618Z,9.61
2023-04-23T21:31:36.850Z,9.56
2023-04-23T21:34:06.824Z,9.51
2023-04-23T21:36:36.022Z,9.50
2023-04-23T21:39:05.051Z,9.51
2023-04-23T21:41:41.382Z,9.47
2023-04-23T21:44:10.036Z,9.43
2023-04-23T21:46:39.211Z,9.32
2023-04-23T21:49:08.189Z,9.28
2023-04-23T21:51:38.760Z,9.29
2023-04-23T21:54:07.673Z,9.31
2023-04-23T21:56:38.355Z,9.29
2023-04-23T21:59:09.044Z,9.31
2023-04-23T22:01:37.740Z,9.28
2023-04-23T22:04:08.848Z,9.13
2023-04-23T22:06:39.670Z,9.23
2023-04-23T22:09:08.950Z,9.18
2023-04-23T22:11:37.813Z,9.15
2023-04-23T22:14:08.248Z,9.15
2023-04-23T22:16:37.017Z,9.14
2023-04-23T22:19:05.574Z,9.17
2023-04-23T22:21:34.304Z,9.14
2023-04-23T22:24:04.172Z,9.09
2023-04-23T22:26:34.172Z,9.06
2023-04-23T22:29:02.866Z,9.03
2023-04-23T22:31:32.692Z,9.01
2023-04-23T22:34:01.303Z,8.97
2023-04-23T22:36:29.983Z,8.95
2023-04-23T22:38:58.970Z,8.91
2023-04-23T22:41:27.604Z,8.87
2023-04-23T22:43:56.764Z,8.85
2023-04-23T22:46:26.108Z,8.81
2023-04-23T22:48:56.336Z,8.70
2023-04-23T22:51:25.239Z,8.66
2023-04-23T22:53:54.010Z,8.64
2023-04-23T22:56:22.375Z,8.63
2023-04-23T22:58:52.523Z,8.57
2023-04-23T23:01:21.402Z,8.51
2023-04-23T23:03:50.940Z,8.51
2023-04-23T23:06:21.080Z,8.47
2023-04-23T23:08:50.074Z,8.49
2023-04-23T23:11:19.013Z,8.51
2023-04-23T23:13:48.029Z,8.50
2023-04-23T23:16:17.654Z,8.49
2023-04-23T23:18:46.783Z,8.43
2023-04-23T23:21:16.307Z,8.45
2023-04-23T23:23:46.350Z,8.47
2023-04-23T23:26:15.288Z,8.50
2023-04-23T23:28:44.335Z,8.50
2023-04-23T23:31:13.157Z,8.49
2023-04-23T23:33:42.105Z,8.46
2023-04-23T23:36:12.949Z,8.45
2023-04-23T23:38:41.654Z,8.42
2023-04-23T23:41:12.427Z,8.44
2023-04-23T23:43:41.375Z,8.48
2023-04-23T23:46:10.791Z,8.41
2023-04-23T23:48:39.586Z,8.37
2023-04-23T23:51:08.370Z,8.37
2023-04-23T23:53:37.220Z,8.38
2023-04-23T23:56:06.097Z,8.35
2023-04-23T23:58:36.677Z,8.37
